createdAt,value
2022-12-16T00:01:15.576Z,10.05
2022-12-16T00:03:47.830Z,7.18
2022-12-16T00:08:41.021Z,8.45
2022-12-16T00:11:08.711Z,4.80
2022-12-16T00:13:37.235Z,8.07
2022-12-16T00:16:06.576Z,4.90
2022-12-16T00:18:33.754Z,8.27
2022-12-16T00:21:00.506Z,6.40
2022-12-16T00:23:28.355Z,4.60
2022-12-16T00:25:55.369Z,6.45
2022-12-16T00:28:24.817Z,5.87
2022-12-16T00:30:53.357Z,9.38
2022-12-16T00:33:24.419Z,8.30
2022-12-16T00:35:51.910Z,14.13
2022-12-16T00:38:19.368Z,3.83
2022-12-16T00:40:46.420Z,5.78
2022-12-16T00:43:13.380Z,6.68
2022-12-16T00:45:40.527Z,5.72
2022-12-16T00:48:07.803Z,8.85
2022-12-16T00:50:35.487Z,5.62
2022-12-16T00:53:02.812Z,4.05
2022-12-16T00:55:29.826Z,8.10
2022-12-16T00:57:56.508Z,5.55
2022-12-16T01:00:23.733Z,4.25
2022-12-16T01:02:51.627Z,5.57
2022-12-16T01:05:22.278Z,5.97
2022-12-16T01:07:49.067Z,3.35
2022-12-16T02:35:35.655Z,2.60
2022-12-16T02:38:24.726Z,2.55
2022-12-16T02:41:00.345Z,2.30
2022-12-16T02:43:43.085Z,4.80
2022-12-16T02:46:09.979Z,3.15
2022-12-16T02:48:36.907Z,7.15
2022-12-16T02:51:03.651Z,3.55
2022-12-16T02:53:36.115Z,6.37
2022-12-16T02:56:22.821Z,3.45
2022-12-16T02:59:01.639Z,4.55
2022-12-16T03:01:28.662Z,4.12
2022-12-16T03:04:11.894Z,2.78
2022-12-16T03:06:42.343Z,5.55
2022-12-16T03:09:12.407Z,4.20
2022-12-16T03:11:43.166Z,2.05
2022-12-16T03:14:14.557Z,4.03
2022-12-16T03:16:42.760Z,2.15
2022-12-16T03:19:11.807Z,2.70
2022-12-16T03:21:46.491Z,6.30
2022-12-16T03:24:14.433Z,4.00
2022-12-16T03:26:51.659Z,2.08
2022-12-16T03:29:28.088Z,4.57
2022-12-16T03:32:01.019Z,4.18
2022-12-16T03:34:53.144Z,2.37
2022-12-16T03:37:25.022Z,4.28
2022-12-16T03:39:57.250Z,3.85
2022-12-16T03:42:24.115Z,2.67
2022-12-16T03:44:51.297Z,4.18
2022-12-16T03:47:23.319Z,5.75
2022-12-16T03:49:51.127Z,4.82
2022-12-16T03:52:18.124Z,4.00
2022-12-16T03:54:44.728Z,3.05
2022-12-16T03:57:15.446Z,7.30
2022-12-16T03:59:43.007Z,4.23
2022-12-16T04:02:09.772Z,4.28
2022-12-16T04:04:36.800Z,3.97
2022-12-16T04:07:21.788Z,3.50
2022-12-16T04:09:49.996Z,6.80
2022-12-16T04:12:35.544Z,4.72
2022-12-16T04:15:20.918Z,4.05
2022-12-16T04:18:06.430Z,3.03
2022-12-16T04:20:55.947Z,2.90
2022-12-16T04:23:44.817Z,3.28
2022-12-16T04:26:12.191Z,3.35
2022-12-16T04:28:38.823Z,5.20
2022-12-16T04:31:05.814Z,4.20
2022-12-16T04:33:51.558Z,4.20
2022-12-16T04:36:36.889Z,4.18
2022-12-16T04:39:23.035Z,3.70
2022-12-16T04:42:12.329Z,6.78
2022-12-16T04:44:58.677Z,5.40
2022-12-16T04:47:44.317Z,6.37
2022-12-16T04:50:29.725Z,7.70
2022-12-16T04:53:15.243Z,4.75
2022-12-16T04:56:04.156Z,6.18
2022-12-16T04:58:50.480Z,6.53
2022-12-16T05:01:36.067Z,5.10
2022-12-16T05:04:21.313Z,2.40
2022-12-16T05:07:06.534Z,9.20
2022-12-16T05:09:52.066Z,4.43
2022-12-16T05:12:37.764Z,6.68
2022-12-16T05:15:23.696Z,4.57
2022-12-16T05:18:08.932Z,4.55
2022-12-16T05:20:54.349Z,11.45
2022-12-16T05:23:42.588Z,6.12
2022-12-16T05:26:27.709Z,4.82
2022-12-16T05:29:13.176Z,6.75
2022-12-16T05:31:58.689Z,3.22
2022-12-16T05:34:43.934Z,6.90
2022-12-16T05:37:29.308Z,6.70
2022-12-16T05:40:14.658Z,8.95
2022-12-16T05:43:04.004Z,9.07
2022-12-16T05:45:49.409Z,7.62
2022-12-16T05:48:34.741Z,9.13
2022-12-16T05:51:20.164Z,11.50
2022-12-16T05:54:05.600Z,5.95
2022-12-16T05:56:50.962Z,13.30
2022-12-16T05:59:36.308Z,8.57
2022-12-16T06:02:21.576Z,11.18
2022-12-16T06:05:07.290Z,9.10
2022-12-16T06:07:52.494Z,12.13
2022-12-16T06:10:38.391Z,11.02
2022-12-16T06:13:23.825Z,6.87
2022-12-16T06:16:09.483Z,9.20
2022-12-16T06:18:55.156Z,10.65
2022-12-16T06:21:41.198Z,8.48
2022-12-16T06:24:26.478Z,9.10
2022-12-16T06:27:12.098Z,13.55
2022-12-16T06:29:57.338Z,11.15
2022-12-16T06:32:42.869Z,6.95
2022-12-16T06:35:28.295Z,7.55
2022-12-16T06:38:13.889Z,9.52
2022-12-16T06:40:59.353Z,9.15
2022-12-16T06:43:44.689Z,8.98
2022-12-16T06:46:30.260Z,5.80
2022-12-16T06:49:16.031Z,7.35
2022-12-16T06:52:01.262Z,12.55
2022-12-16T06:54:46.771Z,12.80
2022-12-16T06:57:32.142Z,7.85
2022-12-16T07:00:17.946Z,12.73
2022-12-16T07:03:03.203Z,5.07
2022-12-16T07:05:49.015Z,4.35
2022-12-16T07:08:34.466Z,7.47
2022-12-16T07:11:19.738Z,10.85
2022-12-16T07:14:12.692Z,5.22
2022-12-16T07:16:58.427Z,6.47
2022-12-16T07:19:43.789Z,9.05
2022-12-16T07:22:29.190Z,7.28
2022-12-16T07:25:14.627Z,5.07
2022-12-16T07:28:04.615Z,3.75
2022-12-16T07:30:50.017Z,6.15
2022-12-16T07:33:36.159Z,7.03
2022-12-16T07:36:21.572Z,7.18
2022-12-16T07:39:07.010Z,6.00
2022-12-16T07:41:52.196Z,8.15
2022-12-16T07:44:38.312Z,6.30
2022-12-16T07:47:23.603Z,5.45
2022-12-16T07:50:08.832Z,6.65
2022-12-16T07:52:54.342Z,12.50
2022-12-16T07:55:40.859Z,8.30
2022-12-16T07:58:28.168Z,6.78
2022-12-16T08:01:13.699Z,4.68
2022-12-16T08:03:59.621Z,5.32
2022-12-16T08:06:44.958Z,7.43
2022-12-16T08:09:30.473Z,4.62
2022-12-16T08:12:15.875Z,14.30
2022-12-16T08:15:01.255Z,6.18
2022-12-16T08:17:46.533Z,10.70
2022-12-16T08:20:32.241Z,6.25
2022-12-16T08:23:17.669Z,7.12
2022-12-16T08:26:16.605Z,7.40
2022-12-16T08:29:27.304Z,9.95
2022-12-16T08:32:08.012Z,7.25
2022-12-16T08:34:53.497Z,9.75
2022-12-16T08:37:38.851Z,14.18
2022-12-16T08:40:39.927Z,10.18
2022-12-16T08:43:25.354Z,7.82
2022-12-16T08:46:13.219Z,7.05
2022-12-16T08:48:59.022Z,10.77
2022-12-16T08:51:44.656Z,8.35
2022-12-16T08:54:30.971Z,4.53
2022-12-16T08:57:16.682Z,7.10
2022-12-16T09:00:02.467Z,13.62
2022-12-16T09:02:48.187Z,9.18
2022-12-16T09:05:34.022Z,4.72
2022-12-16T09:08:21.199Z,12.20
2022-12-16T09:11:06.897Z,5.47
2022-12-16T09:13:52.262Z,7.78
2022-12-16T09:16:37.573Z,6.65
2022-12-16T09:19:23.167Z,11.80
2022-12-16T09:22:08.585Z,3.40
2022-12-16T09:24:53.999Z,6.00
2022-12-16T09:27:41.640Z,5.72
2022-12-16T09:30:27.987Z,9.95
2022-12-16T09:33:13.369Z,8.35
2022-12-16T09:35:58.947Z,5.55
2022-12-16T09:38:44.196Z,4.90
2022-12-16T09:41:45.222Z,4.15
2022-12-16T09:44:49.271Z,7.85
2022-12-16T09:47:57.322Z,5.40
2022-12-16T09:50:46.561Z,6.68
2022-12-16T09:53:34.512Z,5.60
2022-12-16T09:56:23.554Z,6.97
2022-12-16T09:59:21.399Z,6.68
2022-12-16T10:02:09.350Z,3.58
2022-12-16T10:04:55.098Z,6.87
2022-12-16T10:07:42.095Z,6.80
2022-12-16T10:10:46.923Z,5.35
2022-12-16T10:13:37.728Z,5.97
2022-12-16T10:16:39.826Z,9.20
2022-12-16T10:19:39.687Z,3.10
2022-12-16T10:22:39.886Z,5.25
2022-12-16T10:25:37.722Z,6.75
2022-12-16T10:28:40.590Z,3.97
2022-12-16T10:34:18.115Z,4.20
2022-12-16T10:37:10.993Z,3.47
2022-12-16T10:40:02.446Z,5.30
2022-12-16T10:42:52.403Z,2.80
2022-12-16T10:46:03.903Z,11.43
2022-12-16T10:48:56.910Z,3.85
2022-12-16T10:51:45.989Z,4.65
2022-12-16T10:54:47.297Z,2.60
2022-12-16T10:57:58.385Z,5.70
2022-12-16T11:01:04.830Z,3.40
2022-12-16T11:03:54.406Z,4.72
2022-12-16T11:06:44.073Z,1.98
2022-12-16T11:09:49.584Z,4.20
2022-12-16T11:12:49.344Z,3.70
2022-12-16T11:15:49.588Z,3.33
2022-12-16T11:18:37.403Z,5.60
2022-12-16T11:21:43.035Z,3.87
2022-12-16T11:24:31.326Z,3.67
2022-12-16T11:27:22.830Z,4.00
2022-12-16T11:30:20.531Z,5.68
2022-12-16T11:33:13.105Z,5.07
2022-12-16T11:36:03.565Z,2.10
2022-12-16T11:39:09.855Z,3.40
2022-12-16T11:41:59.708Z,2.62
2022-12-16T11:44:54.664Z,2.78
2022-12-16T11:47:53.493Z,3.35
2022-12-16T11:50:40.853Z,4.45
2022-12-16T11:53:43.909Z,2.45
2022-12-16T11:56:39.103Z,2.60
2022-12-16T11:59:39.564Z,4.53
2022-12-16T12:02:54.815Z,4.05
2022-12-16T12:06:05.529Z,2.10
2022-12-16T12:09:06.706Z,6.00
2022-12-16T12:11:54.027Z,1.60
2022-12-16T12:15:06.108Z,5.03
2022-12-16T12:18:03.069Z,2.15
2022-12-16T12:20:57.874Z,3.35
2022-12-16T12:23:58.490Z,4.62
2022-12-16T12:26:51.123Z,2.42
2022-12-16T12:29:57.885Z,3.40
2022-12-16T12:32:55.507Z,1.87
2022-12-16T12:36:03.714Z,3.40
2022-12-16T12:38:57.983Z,3.80
2022-12-16T14:23:57.773Z,1.52
2022-12-16T14:26:44.545Z,3.58
2022-12-16T14:29:44.386Z,0.90
2022-12-16T14:32:59.350Z,2.95
2022-12-16T14:35:46.483Z,6.30
2022-12-16T14:38:49.241Z,4.95
2022-12-16T14:41:39.316Z,3.80
2022-12-16T14:44:36.167Z,5.12
2022-12-16T14:47:21.838Z,2.25
2022-12-16T14:50:10.881Z,4.72
2022-12-16T14:52:57.176Z,3.28
2022-12-16T14:55:48.779Z,5.15
2022-12-16T14:58:36.563Z,3.87
2022-12-16T15:01:31.441Z,3.67
2022-12-16T15:04:18.810Z,2.67
2022-12-16T15:07:08.167Z,4.57
2022-12-16T15:10:05.324Z,6.78
2022-12-16T15:12:58.646Z,2.20
2022-12-16T15:15:57.244Z,3.22
2022-12-16T15:19:04.953Z,2.22
2022-12-16T15:21:54.021Z,1.62
2022-12-16T15:24:44.417Z,3.43
2022-12-16T15:27:53.465Z,1.52
2022-12-16T15:31:04.663Z,4.30
2022-12-16T15:33:53.209Z,1.87
2022-12-16T15:36:41.565Z,1.33
2022-12-16T15:39:40.835Z,2.97
2022-12-16T15:42:47.364Z,2.28
2022-12-16T15:45:44.326Z,3.03
2022-12-16T15:48:42.015Z,1.40
2022-12-16T15:51:50.291Z,0.95
2022-12-16T15:54:45.460Z,1.27
2022-12-16T15:57:53.775Z,1.05
2022-12-16T16:00:49.968Z,0.98
2022-12-16T16:03:47.686Z,1.92
2022-12-16T16:06:40.256Z,2.00
2022-12-16T16:09:45.935Z,2.33
2022-12-16T16:12:34.689Z,1.85
2022-12-16T16:15:20.926Z,2.25
2022-12-16T16:18:12.382Z,2.28
2022-12-16T16:20:58.350Z,2.62
2022-12-16T16:23:43.761Z,2.25
2022-12-16T16:26:31.987Z,5.18
2022-12-16T16:29:17.709Z,4.80
2022-12-16T16:32:04.837Z,2.90
2022-12-16T16:34:50.102Z,2.42
2022-12-16T16:37:38.623Z,1.48
2022-12-16T16:40:37.137Z,1.77
2022-12-16T16:43:23.271Z,3.55
2022-12-16T16:46:13.218Z,1.10
2022-12-16T16:48:59.604Z,3.72
2022-12-16T16:51:45.536Z,2.28
2022-12-16T16:54:31.076Z,1.52
2022-12-16T16:57:19.523Z,1.15
2022-12-16T17:00:05.544Z,0.95
2022-12-16T17:03:10.979Z,0.77
2022-12-16T17:05:56.742Z,2.15
2022-12-16T17:08:41.929Z,2.33
2022-12-16T17:11:41.314Z,0.77
2022-12-16T17:14:35.314Z,0.80
2022-12-16T17:17:21.223Z,0.82
2022-12-16T17:20:07.156Z,2.90
2022-12-16T17:22:53.011Z,1.52
2022-12-16T17:25:39.225Z,1.17
2022-12-16T17:28:24.923Z,3.53
2022-12-16T17:31:10.180Z,3.92
2022-12-16T17:33:55.798Z,0.95
2022-12-16T17:36:40.959Z,1.05
2022-12-16T17:39:29.424Z,1.62
2022-12-16T17:42:15.340Z,2.15
2022-12-16T17:45:01.261Z,0.75
2022-12-16T17:47:46.831Z,2.85
2022-12-16T17:50:33.182Z,2.75
2022-12-16T17:53:18.406Z,0.90
2022-12-16T17:56:03.848Z,2.58
2022-12-16T17:58:54.063Z,3.55
2022-12-16T18:01:40.701Z,1.15
2022-12-16T18:04:27.064Z,3.25
2022-12-16T18:07:26.559Z,1.23
2022-12-16T18:10:11.975Z,0.88
2022-12-16T18:12:57.425Z,2.35
2022-12-16T18:15:42.844Z,2.00
2022-12-16T18:18:28.300Z,1.05
2022-12-16T18:21:13.863Z,1.12
2022-12-16T18:23:59.462Z,2.30
2022-12-16T18:26:44.803Z,1.67
2022-12-16T18:29:29.970Z,1.12
2022-12-16T18:32:15.411Z,1.75
2022-12-16T18:35:00.924Z,2.17
2022-12-16T18:37:46.383Z,1.33
2022-12-16T18:40:31.813Z,1.62
2022-12-16T18:43:17.613Z,1.10
2022-12-16T18:46:02.974Z,2.03
2022-12-16T18:48:48.415Z,2.42
2022-12-16T18:51:33.905Z,1.35
2022-12-16T18:54:19.684Z,1.55
2022-12-16T18:57:05.124Z,1.30
2022-12-16T18:59:56.398Z,1.30
2022-12-16T19:02:42.088Z,1.02
2022-12-16T19:05:27.826Z,0.82
2022-12-16T19:08:14.609Z,0.40
2022-12-16T19:11:00.241Z,1.05
2022-12-16T19:13:45.682Z,0.82
2022-12-16T19:16:33.977Z,1.42
2022-12-16T19:19:20.444Z,0.62
2022-12-16T19:22:06.238Z,1.20
2022-12-16T19:24:51.892Z,3.10
2022-12-16T19:27:37.631Z,2.58
2022-12-16T19:30:23.581Z,0.93
2022-12-16T19:33:09.293Z,1.35
2022-12-16T19:35:54.614Z,0.68
2022-12-16T19:38:42.741Z,1.77
2022-12-16T19:41:36.370Z,1.33
2022-12-16T19:44:23.155Z,1.90
2022-12-16T19:47:09.402Z,1.08
2022-12-16T19:49:56.175Z,0.85
2022-12-16T19:52:42.375Z,1.48
2022-12-16T19:55:28.347Z,0.93
2022-12-16T19:58:14.376Z,1.30
2022-12-16T20:01:00.020Z,0.73
2022-12-16T20:03:46.245Z,3.50
2022-12-16T20:06:34.333Z,2.05
2022-12-16T20:09:19.820Z,1.90
2022-12-16T20:12:05.123Z,0.70
2022-12-16T20:14:50.556Z,1.67
2022-12-16T20:17:38.015Z,0.65
2022-12-16T20:20:24.169Z,1.08
2022-12-16T20:23:09.446Z,3.62
2022-12-16T20:29:00.577Z,1.08
2022-12-16T20:31:47.282Z,1.45
2022-12-16T20:34:32.665Z,1.40
2022-12-16T20:37:18.204Z,2.47
2022-12-16T20:40:03.530Z,0.90
2022-12-16T20:42:49.449Z,1.35
2022-12-16T20:45:35.979Z,2.05
2022-12-16T20:48:22.352Z,0.98
2022-12-16T20:51:18.557Z,1.17
2022-12-16T20:54:10.193Z,1.12
2022-12-16T20:56:55.498Z,1.33
2022-12-16T20:59:42.183Z,0.60
2022-12-16T21:02:34.364Z,1.58
2022-12-16T21:05:21.643Z,1.12
2022-12-16T21:08:06.947Z,1.37
2022-12-16T21:10:52.588Z,1.50
2022-12-16T21:13:41.692Z,1.65
2022-12-16T21:16:27.427Z,0.77
2022-12-16T21:19:12.860Z,0.73
2022-12-16T21:21:58.160Z,0.60
2022-12-16T21:24:43.739Z,2.72
2022-12-16T21:27:29.684Z,0.70
2022-12-16T21:30:24.629Z,1.00
2022-12-16T21:33:09.989Z,1.17
2022-12-16T21:39:00.984Z,0.65
2022-12-16T21:41:46.362Z,1.58
2022-12-16T21:44:31.714Z,4.18
2022-12-16T21:47:17.331Z,1.15
2022-12-16T21:50:02.957Z,1.45
2022-12-16T21:52:48.484Z,2.37
2022-12-16T21:55:34.483Z,0.95
2022-12-16T21:58:19.776Z,1.15
2022-12-16T22:01:13.664Z,1.20
2022-12-16T22:03:59.108Z,0.75
2022-12-16T22:06:48.563Z,1.65
2022-12-16T22:09:35.631Z,1.95
2022-12-16T22:12:21.025Z,7.12
2022-12-16T22:15:06.456Z,0.80
2022-12-16T22:20:57.526Z,3.62
2022-12-16T22:23:47.574Z,1.27
2022-12-16T22:26:33.436Z,3.35
2022-12-16T22:29:18.856Z,0.68
2022-12-16T22:32:04.244Z,2.92
2022-12-16T22:34:49.581Z,2.90
2022-12-16T22:37:34.918Z,0.75
2022-12-16T22:40:20.286Z,2.72
2022-12-16T22:43:07.193Z,1.23
2022-12-16T22:45:52.901Z,1.25
2022-12-16T22:48:41.821Z,1.05
2022-12-16T22:51:32.282Z,2.50
2022-12-16T22:54:18.604Z,1.05
2022-12-16T22:57:03.959Z,1.83
2022-12-16T22:59:49.182Z,1.65
2022-12-16T23:02:34.622Z,2.80
2022-12-16T23:05:25.347Z,0.90
2022-12-16T23:08:12.916Z,1.08
2022-12-16T23:10:58.223Z,0.77
2022-12-16T23:13:45.298Z,0.80
2022-12-16T23:16:31.089Z,1.48
2022-12-16T23:19:16.649Z,1.05
2022-12-16T23:22:01.919Z,1.33
2022-12-16T23:24:47.266Z,1.10
2022-12-16T23:30:19.595Z,1.37
2022-12-16T23:33:05.050Z,1.98
2022-12-16T23:35:50.528Z,4.22
2022-12-16T23:38:36.003Z,4.90
2022-12-16T23:41:21.334Z,1.92
2022-12-16T23:44:06.960Z,5.40
2022-12-16T23:46:53.426Z,0.85
2022-12-16T23:49:39.256Z,2.62
2022-12-16T23:52:24.485Z,2.08
2022-12-16T23:55:09.963Z,0.73
2022-12-16T23:57:56.183Z,3.40
